createdAt,value
2023-03-07T00:02:01.222Z,100.00
2023-03-07T00:07:07.003Z,100.00
2023-03-07T00:12:12.768Z,100.00
2023-03-07T00:17:18.753Z,100.00
2023-03-07T00:22:25.182Z,100.00
2023-03-07T00:27:32.017Z,100.00
2023-03-07T00:32:38.157Z,100.00
2023-03-07T00:37:44.064Z,100.00
2023-03-07T00:42:50.981Z,100.00
2023-03-07T00:47:57.558Z,100.00
2023-03-07T00:53:03.875Z,100.00
2023-03-07T00:58:09.993Z,100.00
2023-03-07T01:03:15.873Z,100.00
2023-03-07T01:08:22.933Z,100.00
2023-03-07T01:13:29.996Z,99.94
2023-03-07T01:18:35.751Z,99.83
2023-03-07T01:23:42.061Z,99.89
2023-03-07T01:28:50.404Z,99.81
2023-03-07T01:33:56.928Z,99.94
2023-03-07T01:39:06.812Z,99.95
2023-03-07T01:44:20.422Z,99.98
2023-03-07T01:49:30.148Z,100.00
2023-03-07T01:54:49.019Z,100.00
2023-03-07T02:00:01.041Z,100.00
2023-03-07T02:05:14.496Z,100.00
2023-03-07T02:10:22.726Z,100.00
2023-03-07T02:15:29.315Z,100.00
2023-03-07T02:20:43.413Z,100.00
2023-03-07T02:25:58.461Z,100.00
2023-03-07T02:31:07.482Z,100.00
2023-03-07T02:36:19.392Z,100.00
2023-03-07T02:41:38.507Z,100.00
2023-03-07T02:46:51.492Z,100.00
2023-03-07T02:52:00.696Z,100.00
2023-03-07T02:57:07.415Z,100.00
2023-03-07T03:02:13.735Z,100.00
2023-03-07T03:07:20.013Z,100.00
2023-03-07T03:12:26.307Z,100.00
2023-03-07T03:17:32.315Z,100.00
2023-03-07T03:22:38.356Z,100.00
2023-03-07T03:27:44.665Z,100.00
2023-03-07T03:32:51.486Z,100.00
2023-03-07T03:37:58.222Z,100.00
2023-03-07T03:43:04.928Z,100.00
2023-03-07T03:48:11.207Z,100.00
2023-03-07T03:53:17.072Z,100.00
2023-03-07T03:58:22.781Z,100.00
2023-03-07T04:03:28.915Z,100.00
2023-03-07T04:08:35.553Z,100.00
2023-03-07T04:13:41.652Z,100.00
2023-03-07T04:18:47.372Z,100.00
2023-03-07T04:23:57.221Z,100.00
2023-03-07T04:29:05.903Z,100.00
2023-03-07T04:34:15.553Z,100.00
2023-03-07T04:39:21.567Z,100.00
2023-03-07T04:44:27.841Z,100.00
2023-03-07T04:49:33.942Z,100.00
2023-03-07T04:54:41.008Z,100.00
2023-03-07T04:59:47.606Z,100.00
2023-03-07T05:04:54.184Z,100.00
2023-03-07T05:10:01.186Z,100.00
2023-03-07T05:15:10.300Z,100.00
2023-03-07T05:20:16.441Z,100.00
2023-03-07T05:25:22.560Z,100.00
2023-03-07T05:30:29.358Z,100.00
2023-03-07T05:35:35.678Z,100.00
2023-03-07T05:40:42.413Z,100.00
2023-03-07T05:45:50.981Z,100.00
2023-03-07T05:51:01.276Z,100.00
2023-03-07T05:56:06.585Z,100.00
2023-03-07T06:01:12.375Z,100.00
2023-03-07T06:06:19.492Z,100.00
2023-03-07T06:11:25.737Z,100.00
2023-03-07T06:16:31.749Z,100.00
2023-03-07T06:21:38.527Z,100.00
2023-03-07T06:26:45.501Z,100.00
2023-03-07T06:31:52.197Z,100.00
2023-03-07T06:36:58.342Z,100.00
2023-03-07T06:42:04.828Z,100.00
2023-03-07T06:47:11.473Z,100.00
2023-03-07T06:52:17.461Z,99.72
2023-03-07T06:57:23.823Z,99.98
2023-03-07T07:02:29.893Z,99.98
2023-03-07T07:07:36.181Z,99.93
2023-03-07T07:12:42.696Z,99.66
2023-03-07T07:17:51.397Z,99.65
2023-03-07T07:22:58.076Z,99.09
2023-03-07T07:28:04.308Z,98.86
2023-03-07T07:33:10.405Z,98.87
2023-03-07T07:38:16.483Z,97.48
2023-03-07T07:43:22.657Z,97.13
2023-03-07T07:48:37.738Z,97.35
2023-03-07T07:53:43.616Z,96.72
2023-03-07T07:58:50.540Z,93.20
2023-03-07T08:03:56.454Z,91.03
2023-03-07T08:09:03.169Z,88.52
2023-03-07T08:14:09.871Z,85.82
2023-03-07T08:19:15.966Z,84.53
2023-03-07T08:24:32.047Z,82.30
2023-03-07T08:29:48.088Z,75.65
2023-03-07T08:34:54.229Z,67.40
2023-03-07T08:40:00.157Z,61.86
2023-03-07T08:45:08.221Z,57.10
2023-03-07T08:50:14.500Z,54.68
2023-03-07T08:55:21.277Z,51.01
2023-03-07T09:00:27.222Z,51.45
2023-03-07T09:05:36.807Z,50.28
2023-03-07T09:10:42.640Z,48.66
2023-03-07T09:15:48.377Z,46.65
2023-03-07T09:20:54.416Z,44.77
2023-03-07T09:26:02.047Z,44.73
2023-03-07T09:31:11.081Z,44.85
2023-03-07T09:36:19.602Z,44.44
2023-03-07T09:41:52.256Z,43.17
2023-03-07T09:47:11.014Z,44.87
2023-03-07T09:52:20.587Z,44.08
2023-03-07T09:57:28.722Z,43.03
2023-03-07T10:02:39.296Z,44.04
2023-03-07T10:07:45.501Z,44.73
2023-03-07T10:13:04.904Z,45.87
2023-03-07T10:18:39.891Z,46.54
2023-03-07T10:24:20.343Z,47.35
2023-03-07T10:29:31.283Z,46.46
2023-03-07T10:34:37.140Z,47.66
2023-03-07T10:39:49.697Z,49.51
2023-03-07T10:44:55.524Z,50.33
2023-03-07T10:50:18.230Z,51.51
2023-03-07T10:55:37.122Z,53.00
2023-03-07T11:00:47.256Z,55.49
2023-03-07T11:05:53.982Z,57.17
2023-03-07T11:11:00.978Z,59.45
2023-03-07T11:16:20.407Z,62.07
2023-03-07T11:21:32.809Z,63.82
2023-03-07T11:26:41.726Z,64.03
2023-03-07T11:31:58.519Z,63.98
2023-03-07T11:37:23.676Z,64.91
2023-03-07T11:42:35.131Z,64.49
2023-03-07T11:47:44.140Z,63.62
2023-03-07T11:53:21.809Z,64.41
2023-03-07T11:59:10.013Z,63.85
2023-03-07T12:04:38.721Z,63.81
2023-03-07T12:09:55.344Z,63.52
2023-03-07T12:15:19.699Z,62.95
2023-03-07T12:20:31.035Z,62.28
2023-03-07T12:25:40.173Z,62.53
2023-03-07T12:31:02.251Z,62.45
2023-03-07T12:36:16.537Z,62.06
2023-03-07T12:41:32.305Z,61.23
2023-03-07T12:46:47.016Z,61.34
2023-03-07T12:52:00.013Z,60.61
2023-03-07T12:57:10.198Z,60.31
2023-03-07T13:02:21.988Z,59.76
2023-03-07T13:07:30.812Z,60.06
2023-03-07T13:12:38.376Z,60.72
2023-03-07T13:18:01.191Z,60.41
2023-03-07T13:23:32.400Z,60.72
2023-03-07T13:28:41.373Z,61.22
2023-03-07T13:33:48.089Z,61.93
2023-03-07T13:38:54.415Z,62.64
2023-03-07T13:44:04.801Z,63.42
2023-03-07T13:49:11.048Z,64.83
2023-03-07T13:54:16.935Z,64.65
2023-03-07T13:59:28.668Z,64.93
2023-03-07T14:04:41.244Z,65.25
2023-03-07T14:09:50.970Z,65.88
2023-03-07T14:15:13.054Z,66.60
2023-03-07T14:20:28.035Z,66.86
2023-03-07T14:25:35.969Z,66.92
2023-03-07T14:30:42.115Z,66.79
2023-03-07T14:35:49.109Z,66.93
2023-03-07T14:41:23.210Z,67.03
2023-03-07T14:46:36.385Z,67.57
2023-03-07T14:51:44.735Z,67.73
2023-03-07T14:56:54.156Z,67.68
2023-03-07T15:02:00.117Z,67.64
2023-03-07T15:07:20.685Z,67.52
2023-03-07T15:12:30.332Z,67.61
2023-03-07T15:17:44.055Z,67.39
2023-03-07T15:22:52.393Z,67.17
2023-03-07T15:28:04.458Z,66.95
2023-03-07T15:33:22.423Z,66.53
2023-03-07T15:38:29.343Z,66.34
2023-03-07T15:43:37.520Z,65.47
2023-03-07T15:48:48.729Z,65.30
2023-03-07T15:53:56.058Z,64.97
2023-03-07T15:59:05.114Z,65.11
2023-03-07T16:04:30.640Z,65.30
2023-03-07T16:09:36.345Z,65.11
2023-03-07T16:14:42.422Z,64.83
2023-03-07T16:19:49.784Z,64.99
2023-03-07T16:24:55.758Z,65.24
2023-03-07T16:30:02.534Z,65.21
2023-03-07T16:35:16.616Z,65.49
2023-03-07T16:40:23.455Z,65.60
2023-03-07T16:45:30.747Z,65.60
2023-03-07T16:50:36.897Z,65.66
2023-03-07T16:55:43.291Z,65.83
2023-03-07T17:00:50.463Z,65.72
2023-03-07T17:05:56.446Z,66.12
2023-03-07T17:11:02.557Z,65.85
2023-03-07T17:16:12.338Z,66.01
2023-03-07T17:21:21.586Z,66.05
2023-03-07T17:26:31.892Z,66.09
2023-03-07T17:31:37.733Z,66.33
2023-03-07T17:36:43.729Z,66.33
2023-03-07T17:41:50.728Z,66.38
2023-03-07T17:46:56.856Z,66.59
2023-03-07T17:52:06.290Z,66.66
2023-03-07T17:57:12.494Z,66.93
2023-03-07T18:02:18.345Z,67.12
2023-03-07T18:07:24.954Z,67.09
2023-03-07T18:12:31.734Z,67.08
2023-03-07T18:17:47.709Z,67.16
2023-03-07T18:22:56.062Z,67.17
2023-03-07T18:28:05.791Z,67.50
2023-03-07T18:33:13.114Z,67.61
2023-03-07T18:38:20.457Z,67.67
2023-03-07T18:43:27.392Z,67.69
2023-03-07T18:48:34.794Z,67.82
2023-03-07T18:53:42.800Z,68.07
2023-03-07T18:58:54.404Z,68.28
2023-03-07T19:04:03.521Z,68.40
2023-03-07T19:09:15.956Z,68.78
2023-03-07T19:14:22.089Z,69.28
2023-03-07T19:19:28.003Z,70.13
2023-03-07T19:24:34.257Z,70.55
2023-03-07T19:29:39.890Z,71.42
2023-03-07T19:34:48.141Z,72.21
2023-03-07T19:39:54.722Z,72.93
2023-03-07T19:45:00.520Z,74.44
2023-03-07T19:50:07.701Z,76.34
2023-03-07T19:55:13.678Z,77.93
2023-03-07T20:00:21.527Z,79.23
2023-03-07T20:05:27.592Z,80.69
2023-03-07T20:10:33.501Z,82.07
2023-03-07T20:15:39.378Z,83.12
2023-03-07T20:20:45.709Z,83.77
2023-03-07T20:26:23.246Z,84.05
2023-03-07T20:31:29.449Z,83.86
2023-03-07T20:36:36.145Z,83.46
2023-03-07T20:41:42.703Z,82.73
2023-03-07T20:46:49.901Z,82.45
2023-03-07T20:51:55.904Z,82.34
2023-03-07T20:57:03.721Z,82.78
2023-03-07T21:02:09.615Z,82.98
2023-03-07T21:07:15.141Z,83.11
2023-03-07T21:12:21.104Z,83.58
2023-03-07T21:17:26.493Z,84.03
2023-03-07T21:22:32.238Z,84.10
2023-03-07T21:27:37.763Z,84.31
2023-03-07T21:32:43.499Z,84.60
2023-03-07T21:37:49.761Z,84.49
2023-03-07T21:42:55.230Z,85.03
2023-03-07T21:48:00.842Z,85.68
2023-03-07T21:53:06.380Z,86.25
2023-03-07T21:58:12.003Z,86.54
2023-03-07T22:03:18.087Z,86.98
2023-03-07T22:08:23.500Z,87.47
2023-03-07T22:13:29.773Z,88.09
2023-03-07T22:18:35.294Z,88.65
2023-03-07T22:23:40.908Z,90.19
2023-03-07T22:28:46.356Z,91.42
2023-03-07T22:33:52.628Z,88.11
2023-03-07T22:38:58.151Z,88.37
2023-03-07T22:44:03.989Z,89.58
2023-03-07T22:49:12.307Z,90.60
2023-03-07T22:54:17.798Z,91.59
2023-03-07T22:59:23.190Z,92.62
2023-03-07T23:04:30.562Z,93.75
2023-03-07T23:09:36.205Z,94.77
2023-03-07T23:14:41.735Z,95.67
2023-03-07T23:19:47.437Z,96.15
2023-03-07T23:24:53.079Z,96.95
2023-03-07T23:29:58.777Z,97.66
2023-03-07T23:35:05.178Z,98.46
2023-03-07T23:40:12.557Z,98.83
2023-03-07T23:45:19.625Z,99.60
2023-03-07T23:50:27.157Z,99.98
2023-03-07T23:55:32.759Z,100.00
